Elba, Louisiana
Current Conditions -  °F | °C
As of 2:55 AM on Saturday 29 Nov 2014 (Local Time) from KHZR Reporting Station
Clear Clear  
Wind Chill: 46°   Ceiling: Unl
Heat Index: 48°   Visibility: 10mi
Dew Point: 46°   Wind: 6mph
Humidity: 93%   Direction: 110°ESE
Pressure: 30.18"   Gusts: NA
Location:  30.6648°N, 91.7944°W
Report Text: KHZR 290855Z AUTO 11005KT 10SM CLR 09/08 A3018 RMK AO2 T00910080
Loading
Personal Weather Stations






























Interactive Weather Map New forecast layout! Learn more

10-Day Weather Forecast

Advertisements
Track Severe Weather on mobile